KOTH

Southwest Oregon Regional Airport

North Bend, Oregon, USA
KOTH 230520Z 2306/2406 02005KT P6SM SKC FM230800 05005KT P6SM SKC FM231800 36008KT P6SM SKC FM232000 35015G22KT P6SM SKC FM240100 36009KT P6SM SKC
Issued Valid From Valid To
Apr-23 @ 05:20 UTC
(4 hours ago)
Apr-23 @ 06:00 UTC
(4 hours ago)
Apr-24 @ 06:00 UTC
(in 20 hours)
Expired Click to View Apr-23 @ 06:00 to Apr-23 @ 08:00
KOTH 230520Z 2306/2406 02005KT P6SM SKC
Wind Visibility Clouds
20° at 5 knots Greater than 6 miles
  • Clear skies
From Apr-23 @ 08:00 to Apr-23 @ 18:00
FM230800 05005KT P6SM SKC
Wind Visibility Clouds
50° at 5 knots Greater than 6 miles
  • Clear skies
From Apr-23 @ 18:00 to Apr-23 @ 20:00
FM231800 36008KT P6SM SKC
Wind Visibility Clouds
360° at 8 knots Greater than 6 miles
  • Clear skies
From Apr-23 @ 20:00 to Apr-24 @ 01:00
FM232000 35015G22KT P6SM SKC
Wind Visibility Clouds
350° at 15 knots
 Gusting to 22 knots
Greater than 6 miles
  • Clear skies
From Apr-24 @ 01:00 to Apr-24 @ 06:00
FM240100 36009KT P6SM SKC
Wind Visibility Clouds
360° at 9 knots Greater than 6 miles
  • Clear skies
KOTH 230520Z 2306/2406 02005KT P6SM SKC FM230800 05005KT P6SM SKC FM231800 36008KT P6SM SKC FM232000 35015G22KT P6SM SKC FM240100 36009KT P6SM SKC
Issued Apr-23 @ 05:20 UTC
(4 hours ago)
Valid From Apr-23 @ 06:00 UTC
(4 hours ago)
Valid To Apr-24 @ 06:00 UTC
(in 20 hours)
Apr-23 @ 06:00 - Apr-23 @ 08:00
Wind Visibility
20° at 5 knots Greater than 6 miles
Clouds
  • Clear skies
From Apr-23 @ 08:00 - Apr-23 @ 18:00
Wind Visibility
50° at 5 knots Greater than 6 miles
Clouds
  • Clear skies
From Apr-23 @ 18:00 - Apr-23 @ 20:00
Wind Visibility
360° at 8 knots Greater than 6 miles
Clouds
  • Clear skies
From Apr-23 @ 20:00 - Apr-24 @ 01:00
Wind Visibility
350° at 15 knots
 Gusting to 22 knots
Greater than 6 miles
Clouds
  • Clear skies
From Apr-24 @ 01:00 - Apr-24 @ 06:00
Wind Visibility
360° at 9 knots Greater than 6 miles
Clouds
  • Clear skies